Time;durP1;ratioP1;P1;durP2;ratioP2;P2;SDS_P1;SDS_P2;PMS_P1;PMS_P2;Temp;Humidity;BMP_temperature;BMP_pressure;BME280_temperature;BME280_humidity;BME280_pressure;Samples;Min_cycle;Max_cycle;Signal;HPM_P1;HPM_P2
2021/06/08 00:00:21;;;;;;;5.78;3.58;;;16.20;99.90;;;15.96;92.68;101942.66;3936993;30;20043;-68
2021/06/08 00:02:22;;;;;;;6.22;4.50;;;16.20;99.90;;;16.06;92.87;101948.69;3936817;30;20036;-68
2021/06/08 00:04:23;;;;;;;5.60;3.78;;;16.20;99.90;;;16.05;93.27;101949.69;3936850;30;20079;-68
2021/06/08 00:06:24;;;;;;;5.47;4.25;;;16.30;99.90;;;15.96;93.75;101945.31;3937224;30;20472;-68
2021/06/08 00:08:25;;;;;;;6.70;4.38;;;16.20;99.90;;;15.93;93.73;101941.16;3936934;30;20028;-68
2021/06/08 00:10:27;;;;;;;7.70;4.30;;;16.20;99.90;;;15.88;93.84;101942.66;3936784;30;20477;-68
2021/06/08 00:12:43;;;;;;;7.97;4.88;;;16.10;99.90;;;15.83;94.42;101939.66;3916482;30;20063;-68
2021/06/08 00:14:44;;;;;;;6.10;3.97;;;16.00;99.90;;;15.81;94.59;101944.28;3936788;30;20112;-68
2021/06/08 00:16:45;;;;;;;5.03;4.25;;;16.00;99.90;;;15.78;94.32;101942.78;3936785;30;20046;-68
2021/06/08 00:18:46;;;;;;;5.43;4.80;;;15.90;99.90;;;15.72;95.27;101947.91;3936801;30;20435;-68
2021/06/08 00:20:47;;;;;;;6.97;5.30;;;15.90;99.90;;;15.74;95.35;101937.94;3936723;30;20040;-67
2021/06/08 00:22:48;;;;;;;5.47;4.22;;;15.90;99.90;;;15.62;95.26;101937.38;3936611;30;20043;-68
2021/06/08 00:24:49;;;;;;;7.68;4.35;;;15.80;99.90;;;15.73;95.03;101941.59;3936519;30;20074;-68
2021/06/08 00:26:50;;;;;;;6.07;4.07;;;15.90;99.90;;;15.70;95.14;101937.44;3936511;30;20028;-68
2021/06/08 00:28:51;;;;;;;6.68;5.10;;;15.90;99.90;;;15.70;95.83;101939.25;3936826;30;20052;-67
2021/06/08 00:30:53;;;;;;;7.18;4.93;;;15.90;99.90;;;15.58;95.23;101941.38;3936609;30;20035;-68
2021/06/08 00:32:54;;;;;;;6.85;4.80;;;15.80;99.90;;;15.55;95.96;101936.38;3935363;30;20044;-68
2021/06/08 00:34:55;;;;;;;4.45;3.90;;;15.80;99.90;;;15.67;95.68;101939.56;3936355;30;20035;-68
2021/06/08 00:36:56;;;;;;;4.85;4.18;;;15.80;99.90;;;15.63;95.53;101930.22;3936391;30;20060;-67
2021/06/08 00:38:57;;;;;;;7.10;5.07;;;15.80;99.90;;;15.66;95.81;101929.91;3935328;30;20040;-68
2021/06/08 00:41:01;;;;;;;11.35;5.25;;;15.80;99.90;;;15.53;95.74;101937.53;3936402;30;20105;-68
2021/06/08 00:43:02;;;;;;;13.52;5.72;;;15.70;99.90;;;15.52;96.84;101935.84;3935878;30;20063;-68
2021/06/08 00:45:07;;;;;;;7.78;5.13;;;15.70;99.90;;;15.49;96.59;101927.19;3936170;30;20451;-67
2021/06/08 00:47:08;;;;;;;5.32;4.72;;;15.70;99.90;;;15.40;96.24;101922.81;3936306;30;20036;-68
2021/06/08 00:49:10;;;;;;;7.10;4.80;;;15.70;99.90;;;15.36;96.78;101925.91;3936253;30;20056;-68
2021/06/08 00:51:11;;;;;;;6.00;4.90;;;15.60;99.90;;;15.35;96.18;101930.41;3936233;30;20033;-68
2021/06/08 00:53:12;;;;;;;17.52;6.13;;;15.50;99.90;;;15.29;96.40;101923.06;3936359;30;20043;-67
2021/06/08 00:55:13;;;;;;;7.32;5.45;;;15.50;99.90;;;15.31;96.42;101928.22;3936350;30;20115;-67
2021/06/08 00:57:14;;;;;;;6.45;5.00;;;15.50;99.90;;;15.11;97.15;101922.31;3935820;30;20078;-67
2021/06/08 00:59:15;;;;;;;7.78;5.68;;;15.40;99.90;;;15.22;97.69;101930.00;3935968;30;20043;-68
2021/06/08 01:01:16;;;;;;;8.25;6.45;;;15.40;99.90;;;15.23;97.61;101928.19;3936162;30;20524;-67
2021/06/08 01:03:17;;;;;;;11.77;6.43;;;15.40;99.90;;;15.25;97.93;101924.38;3936102;30;20036;-68
2021/06/08 01:05:18;;;;;;;7.47;5.38;;;15.40;99.90;;;15.06;97.96;101903.31;3935895;30;20032;-67
2021/06/08 01:07:19;;;;;;;10.60;6.18;;;15.40;99.90;;;15.25;97.56;101923.53;3936040;30;20031;-68
2021/06/08 01:09:20;;;;;;;6.55;5.50;;;15.40;99.90;;;15.05;97.66;101919.44;3935971;30;20043;-68
2021/06/08 01:11:21;;;;;;;12.50;6.25;;;15.40;99.90;;;15.23;97.81;101915.72;3936023;30;20559;-68
2021/06/08 01:13:22;;;;;;;7.38;5.95;;;15.40;99.90;;;15.07;97.79;101915.63;3935728;30;20115;-68
2021/06/08 01:15:23;;;;;;;6.68;5.18;;;15.40;99.90;;;15.15;97.82;101914.81;3935682;30;20028;-68
2021/06/08 01:17:24;;;;;;;6.28;5.60;;;15.30;99.90;;;15.02;98.31;101912.63;3936032;30;20040;-68
2021/06/08 01:19:25;;;;;;;7.85;6.72;;;15.30;99.90;;;14.93;98.10;101918.88;3936026;30;20047;-67
2021/06/08 01:21:27;;;;;;;11.77;6.15;;;15.20;99.90;;;14.82;98.81;101911.13;3935783;30;20093;-68
2021/06/08 01:23:29;;;;;;;9.50;6.32;;;15.10;99.90;;;14.91;98.27;101913.69;3935655;30;20089;-68
2021/06/08 01:25:29;;;;;;;8.18;6.45;;;15.10;99.90;;;15.00;97.68;101919.03;3934571;30;20044;-68
2021/06/08 01:27:31;;;;;;;10.38;6.40;;;15.10;99.90;;;15.00;97.95;101917.22;3935612;30;20063;-68
2021/06/08 01:29:35;;;;;;;10.82;5.93;;;15.10;99.90;;;14.79;98.13;101906.97;3935804;30;20040;-68
2021/06/08 01:31:37;;;;;;;8.13;6.05;;;15.10;99.90;;;14.84;98.20;101907.31;3935614;30;20032;-68
2021/06/08 01:33:42;;;;;;;8.07;6.50;;;15.00;99.90;;;14.78;98.54;101912.44;3934651;30;20501;-68
2021/06/08 01:35:43;;;;;;;11.35;6.82;;;15.00;99.90;;;14.79;98.34;101914.09;3919874;30;20540;-68
2021/06/08 01:37:45;;;;;;;11.18;6.07;;;15.00;99.90;;;14.84;98.10;101914.47;3934573;30;20076;-68
2021/06/08 01:39:46;;;;;;;9.25;7.15;;;15.00;99.90;;;15.04;97.25;101913.28;3935568;30;20089;-68
2021/06/08 01:41:48;;;;;;;9.43;6.97;;;15.10;99.90;;;14.95;97.86;101912.41;3935458;30;20040;-68
2021/06/08 01:43:51;;;;;;;8.80;6.35;;;15.10;99.90;;;14.81;99.06;101910.28;3912117;30;20101;-68
2021/06/08 01:45:52;;;;;;;8.57;6.63;;;15.00;99.90;;;14.79;98.51;101911.44;3932170;30;20040;-68
2021/06/08 01:47:53;;;;;;;11.32;7.22;;;15.00;99.90;;;14.76;99.06;101909.94;3935517;30;20035;-68
2021/06/08 01:49:54;;;;;;;10.00;6.57;;;15.00;99.90;;;14.82;98.52;101905.81;3936261;30;20115;-68
2021/06/08 01:52:23;;;;;;;12.98;7.28;;;15.00;99.90;;;14.81;98.76;101910.28;3935768;30;20047;-68
2021/06/08 01:55:13;;;;;;;7.15;5.40;;;14.90;99.90;;;14.81;98.58;101909.47;3935711;30;20064;-68
2021/06/08 01:57:44;;;;;;;9.18;7.30;;;14.90;99.90;;;14.95;96.91;101911.56;3929216;30;20049;-68
2021/06/08 01:59:54;;;;;;;9.00;6.82;;;15.00;99.90;;;15.02;96.43;101906.47;3938788;30;20044;-68
2021/06/08 02:02:21;;;;;;;7.72;4.97;;;15.00;99.90;;;14.91;97.44;101905.72;3938693;30;20063;-67
2021/06/08 02:04:24;;;;;;;10.48;6.00;;;15.00;99.90;;;14.78;98.00;101909.78;3938345;30;20036;-68
2021/06/08 02:06:44;;;;;;;6.97;5.18;;;15.00;99.90;;;14.65;98.40;101910.19;3938631;30;20032;-68
2021/06/08 02:09:08;;;;;;;8.13;5.25;;;14.90;99.90;;;14.58;97.80;101906.47;3924469;30;20036;-68
2021/06/08 02:11:47;;;;;;;8.35;5.70;;;14.80;99.90;;;14.67;97.20;101902.03;3938482;30;20520;-68
2021/06/08 02:14:08;;;;;;;7.38;5.53;;;14.70;99.90;;;14.76;96.10;101901.13;3907126;30;20106;-68
2021/06/08 02:16:21;;;;;;;5.15;4.60;;;14.80;99.90;;;14.60;97.08;101898.34;3937387;30;20105;-68
2021/06/08 02:18:25;;;;;;;6.85;5.25;;;14.80;99.90;;;14.47;97.68;101901.41;3938371;30;20075;-68
2021/06/08 02:20:29;;;;;;;;;;;14.70;99.90;;;14.61;96.86;101900.00;3938897;30;20098;-68
2021/06/08 02:22:30;;;;;;;6.40;4.97;;;14.70;99.90;;;14.60;96.84;101898.34;3922880;30;19914;-68
2021/06/08 02:24:32;;;;;;;10.10;7.03;;;14.70;99.90;;;14.69;96.60;101892.97;3937239;30;20482;-68
2021/06/08 02:26:37;;;;;;;10.10;5.82;;;14.80;99.90;;;14.56;97.30;101897.81;3938179;30;20398;-68
2021/06/08 02:28:42;;;;;;;8.85;7.35;;;14.70;99.90;;;14.50;97.55;101895.78;3938141;30;20051;-68
2021/06/08 02:30:46;;;;;;;8.20;5.22;;;14.70;99.90;;;14.45;98.03;101884.78;3922670;30;20033;-68
2021/06/08 02:32:50;;;;;;;7.47;6.30;;;14.60;99.90;;;14.52;97.02;101895.59;3922558;30;20121;-68
2021/06/08 02:34:53;;;;;;;10.57;5.80;;;14.60;99.90;;;14.51;97.39;101896.63;3922411;30;20033;-68
2021/06/08 02:36:54;;;;;;;7.80;5.80;;;14.70;99.90;;;14.63;96.24;101896.22;3922412;30;20064;-68
2021/06/08 02:38:57;;;;;;;9.23;7.32;;;14.60;99.90;;;14.60;96.54;101890.38;3938172;30;20071;-68
2021/06/08 02:41:01;;;;;;;8.23;6.28;;;14.70;99.90;;;14.64;96.71;101897.03;3938290;30;20036;-68
2021/06/08 02:43:02;;;;;;;6.97;5.77;;;14.70;99.90;;;14.64;96.49;101891.72;3937836;30;20067;-68
2021/06/08 02:45:04;;;;;;;9.27;5.55;;;14.70;99.90;;;14.62;96.18;101888.41;3937968;30;20300;-68
2021/06/08 02:47:06;;;;;;;9.48;7.35;;;14.70;99.90;;;14.68;96.02;101893.09;3938113;30;20144;-68
2021/06/08 02:49:09;;;;;;;12.20;6.63;;;14.70;99.90;;;14.63;96.28;101895.38;3938204;30;20059;-67
2021/06/08 02:51:10;;;;;;;8.18;6.30;;;14.70;99.90;;;14.55;97.07;101898.78;3936663;30;20032;-68
2021/06/08 02:53:11;;;;;;;7.47;5.80;;;14.70;99.90;;;14.54;97.33;101899.81;3922371;30;20024;-68
2021/06/08 02:55:13;;;;;;;9.73;6.95;;;14.70;99.90;;;14.40;97.20;101895.84;3922260;30;20114;-68
2021/06/08 02:57:14;;;;;;;8.90;6.90;;;14.60;99.90;;;14.55;96.74;101897.97;3921951;30;20033;-68
2021/06/08 02:59:17;;;;;;;11.95;7.30;;;14.60;99.90;;;14.60;96.00;101903.66;3922185;30;20044;-68
2021/06/08 03:01:20;;;;;;;10.30;7.18;;;14.60;99.90;;;14.66;96.21;101909.19;3922215;30;20036;-68
2021/06/08 03:03:29;;;;;;;10.83;5.90;;;14.70;99.90;;;14.50;97.09;101905.56;3922150;30;20037;-68
2021/06/08 03:06:03;;;;;;;7.80;6.68;;;14.60;99.90;;;14.40;97.58;101911.78;3936406;30;20774;-68
2021/06/08 03:08:14;;;;;;;10.70;7.65;;;14.60;99.90;;;14.37;97.60;101912.09;3916141;30;20041;-68
2021/06/08 03:10:20;;;;;;;10.20;6.95;;;14.60;99.90;;;14.42;97.56;101902.84;3936558;30;20123;-68
2021/06/08 03:12:29;;;;;;;11.95;7.15;;;14.50;99.90;;;14.45;96.68;101899.88;3937592;30;20453;-68
2021/06/08 03:14:30;;;;;;;11.20;6.38;;;14.60;99.90;;;14.34;97.85;101907.09;3937458;30;20405;-68
2021/06/08 03:16:34;;;;;;;9.02;7.53;;;14.60;99.90;;;14.37;96.56;101892.66;3921976;30;20413;-68
2021/06/08 03:18:37;;;;;;;8.25;6.28;;;14.50;99.90;;;14.38;96.95;101905.81;3921897;30;20067;-68
2021/06/08 03:20:52;;;;;;;7.93;6.18;;;14.50;99.90;;;14.32;97.26;101902.88;3937787;30;20036;-68
2021/06/08 03:22:59;;;;;;;11.68;6.13;;;14.50;99.90;;;14.33;97.46;101902.78;3922751;30;20044;-68
2021/06/08 03:25:00;;;;;;;8.75;5.78;;;14.50;99.90;;;14.35;96.73;101903.44;3937223;30;20036;-68
2021/06/08 03:27:03;;;;;;;10.65;7.35;;;14.50;99.90;;;14.33;96.92;101910.75;3937353;30;20489;-68
2021/06/08 03:29:10;;;;;;;8.00;5.72;;;14.40;99.90;;;14.28;97.02;101912.97;3937540;30;20036;-68
2021/06/08 03:31:15;;;;;;;9.50;7.32;;;14.40;99.90;;;14.37;96.80;101914.75;3921929;30;20068;-68
2021/06/08 03:33:19;;;;;;;9.70;6.45;;;14.40;99.90;;;14.20;96.99;101904.94;3921538;30;20067;-68
2021/06/08 03:35:25;;;;;;;9.25;6.50;;;14.40;99.90;;;14.23;97.12;101904.63;3921860;30;20036;-68
2021/06/08 03:37:27;;;;;;;8.93;6.32;;;14.40;99.90;;;14.16;97.06;101908.03;3937184;30;20059;-68
2021/06/08 03:39:29;;;;;;;7.53;6.25;;;14.40;99.90;;;14.05;97.69;101911.75;3937296;30;20036;-68
2021/06/08 03:41:31;;;;;;;8.93;6.78;;;14.30;99.90;;;14.02;97.97;101917.34;3937171;30;20039;-68
2021/06/08 03:43:32;;;;;;;9.13;6.75;;;14.20;99.90;;;14.13;97.33;101906.50;3915284;30;20105;-68
2021/06/08 03:45:33;;;;;;;11.85;7.38;;;14.20;99.90;;;14.03;97.56;101913.72;3931299;30;20405;-68
2021/06/08 03:47:34;;;;;;;10.35;7.20;;;14.20;99.90;;;14.12;97.41;101906.69;3937418;30;20035;-68
2021/06/08 03:49:35;;;;;;;10.52;6.15;;;14.20;99.90;;;14.18;96.60;101909.56;3937265;30;20040;-68
2021/06/08 03:51:36;;;;;;;7.70;6.35;;;14.30;99.90;;;14.26;96.02;101911.44;3937246;30;20043;-68
2021/06/08 03:53:41;;;;;;;9.38;6.40;;;14.30;99.90;;;14.18;95.47;101908.72;3921404;30;20078;-68
2021/06/08 03:55:47;;;;;;;10.38;6.50;;;14.30;99.90;;;14.01;96.90;101918.31;3921349;30;20040;-68
2021/06/08 03:57:52;;;;;;;10.63;6.47;;;14.30;99.90;;;13.98;97.15;101915.97;3936914;30;20036;-68
2021/06/08 03:59:58;;;;;;;9.18;7.40;;;14.20;99.90;;;14.10;96.81;101919.25;3936885;30;20082;-68
2021/06/08 04:02:01;;;;;;;12.43;8.15;;;14.10;99.90;;;14.17;96.62;101915.84;3936975;30;20086;-68
2021/06/08 04:04:02;;;;;;;8.55;6.15;;;14.20;99.90;;;14.16;96.96;101924.78;3935769;30;20094;-68
2021/06/08 04:06:03;;;;;;;13.50;7.40;;;14.30;99.90;;;14.01;97.64;101915.66;3921404;30;20587;-68
2021/06/08 04:08:06;;;;;;;9.13;6.35;;;14.20;99.90;;;13.89;98.31;101924.00;3921334;30;20059;-68
2021/06/08 04:10:09;;;;;;;10.50;7.13;;;14.10;99.90;;;14.00;98.24;101923.78;3937054;30;20028;-68
2021/06/08 04:12:11;;;;;;;7.78;6.28;;;14.10;99.90;;;13.95;97.65;101920.75;3936526;30;20040;-68
2021/06/08 04:14:14;;;;;;;10.07;7.50;;;14.20;99.90;;;13.87;98.45;101926.78;3921306;30;20033;-68
2021/06/08 04:16:18;;;;;;;11.95;7.82;;;14.10;99.90;;;14.09;97.42;101923.75;3921306;30;20099;-68
2021/06/08 04:18:21;;;;;;;9.43;6.88;;;14.20;99.90;;;13.91;97.86;101914.91;3936905;30;20412;-68
2021/06/08 04:20:25;;;;;;;11.25;8.00;;;14.20;99.90;;;13.97;97.79;101918.78;3920584;30;20066;-68
2021/06/08 04:22:27;;;;;;;;;;;14.10;99.90;;;14.07;96.98;101927.50;3921648;30;20028;-68
2021/06/08 04:24:29;;;;;;;10.57;7.15;;;14.20;99.90;;;14.12;96.93;101927.91;3936874;30;19918;-68
2021/06/08 04:26:30;;;;;;;12.70;7.40;;;14.20;99.90;;;13.97;97.98;101918.78;3920947;30;20032;-68
2021/06/08 04:28:31;;;;;;;8.88;6.65;;;14.20;99.90;;;14.00;97.37;101929.94;3936554;30;20036;-68
2021/06/08 04:30:35;;;;;;;8.43;6.93;;;14.20;99.90;;;14.02;97.27;101932.44;3936838;30;20043;-68
2021/06/08 04:32:36;;;;;;;12.05;8.23;;;14.20;99.90;;;14.02;97.52;101920.00;3920933;30;20044;-68
2021/06/08 04:34:37;;;;;;;13.43;7.13;;;14.10;99.90;;;13.89;97.49;101921.34;3920671;30;20098;-68
2021/06/08 04:36:39;;;;;;;10.20;6.85;;;14.20;99.90;;;13.98;97.75;101926.56;3936408;30;20106;-68
2021/06/08 04:38:40;;;;;;;9.98;7.57;;;14.20;99.90;;;13.97;98.32;101930.25;3920750;30;20033;-68
2021/06/08 04:40:47;;;;;;;8.98;7.22;;;14.20;99.90;;;14.04;98.16;101925.16;3936395;30;20028;-68
2021/06/08 04:42:49;;;;;;;9.73;6.90;;;14.20;99.90;;;14.06;97.53;101924.03;3935916;30;20118;-68
2021/06/08 04:44:52;;;;;;;8.85;6.72;;;14.20;99.90;;;13.99;98.05;101932.72;3936212;30;20036;-68
2021/06/08 04:46:55;;;;;;;9.20;6.47;;;14.20;99.90;;;13.82;98.60;101931.72;3936420;30;20060;-68
2021/06/08 04:48:56;;;;;;;8.95;6.70;;;14.10;99.90;;;13.77;99.26;101926.84;3920643;30;20044;-68
2021/06/08 04:50:57;;;;;;;12.68;7.65;;;14.10;99.90;;;13.79;99.17;101918.75;3936246;30;20028;-68
2021/06/08 04:53:05;;;;;;;10.40;6.45;;;14.10;99.90;;;13.83;98.99;101920.09;3936233;30;20512;-68
2021/06/08 04:55:09;;;;;;;8.55;6.72;;;14.10;99.90;;;13.79;99.41;101927.56;3936070;30;20063;-68
2021/06/08 04:57:14;;;;;;;7.95;6.05;;;14.10;99.90;;;13.82;99.40;101931.72;3935896;30;20059;-68
2021/06/08 04:59:22;;;;;;;10.90;7.25;;;14.10;99.90;;;13.90;98.25;101926.50;3936001;30;20471;-68
2021/06/08 05:01:39;;;;;;;10.15;6.78;;;14.10;99.90;;;13.99;97.03;101930.91;3934756;30;20043;-68
2021/06/08 05:03:44;;;;;;;9.52;7.13;;;14.20;99.90;;;13.85;98.19;101926.97;3936088;30;20464;-68
2021/06/08 05:05:53;;;;;;;9.00;6.97;;;14.20;99.90;;;13.90;98.72;101929.16;3935756;30;20050;-68
2021/06/08 05:08:17;;;;;;;9.25;6.80;;;14.20;99.90;;;13.86;98.44;101931.25;3935016;30;20028;-68
2021/06/08 05:10:21;;;;;;;9.65;7.20;;;14.20;99.90;;;13.96;98.52;101933.88;3934841;30;20060;-68
2021/06/08 05:12:23;;;;;;;9.43;7.00;;;14.20;99.90;;;13.99;98.77;101936.22;3935853;30;20075;-68
2021/06/08 05:14:26;;;;;;;8.77;6.93;;;14.20;99.90;;;13.98;98.72;101931.06;3936028;30;20112;-68
2021/06/08 05:16:29;;;;;;;10.02;7.28;;;14.20;99.90;;;14.04;98.80;101941.06;3935905;30;20083;-68
2021/06/08 05:18:31;;;;;;;8.77;7.05;;;14.30;99.90;;;14.09;98.30;101923.75;3935692;30;20032;-68
2021/06/08 05:20:34;;;;;;;7.60;6.72;;;14.30;99.90;;;14.12;98.30;101936.72;3934703;30;20490;-68
2021/06/08 05:22:37;;;;;;;7.55;6.35;;;14.40;99.90;;;14.18;98.07;101927.31;3920294;30;20036;-68
2021/06/08 05:24:39;;;;;;;7.05;5.13;;;14.40;99.90;;;14.22;97.85;101926.84;3919952;30;20071;-68
2021/06/08 05:26:44;;;;;;;6.65;5.75;;;14.50;99.90;;;14.16;97.93;101910.69;3919701;30;20453;-67
2021/06/08 05:28:45;;;;;;;8.35;6.03;;;14.50;99.90;;;14.31;97.28;101933.06;3935187;30;20043;-68
2021/06/08 05:30:48;;;;;;;8.93;6.88;;;14.50;99.90;;;14.37;97.14;101935.97;3935767;30;20033;-68
2021/06/08 05:32:49;;;;;;;8.75;6.60;;;14.60;99.90;;;14.52;95.99;101932.78;3935580;30;20035;-67
2021/06/08 05:34:50;;;;;;;11.07;6.80;;;14.70;99.90;;;14.51;96.53;101928.47;3935509;30;20032;-68
2021/06/08 05:36:52;;;;;;;9.77;6.30;;;14.70;99.90;;;14.46;96.61;101930.72;3935614;30;20420;-68
2021/06/08 05:38:53;;;;;;;12.30;7.75;;;14.70;99.90;;;14.51;96.83;101924.00;3934546;30;20044;-68
2021/06/08 05:40:54;;;;;;;9.55;6.57;;;14.80;99.90;;;14.58;97.13;101934.81;3935745;30;20064;-68
2021/06/08 05:42:55;;;;;;;10.07;6.95;;;14.80;99.90;;;14.58;96.89;101929.53;3935361;30;20221;-68
2021/06/08 05:44:55;;;;;;;12.68;8.02;;;14.90;99.90;;;14.66;96.84;101933.09;3932914;30;20047;-68
2021/06/08 05:46:57;;;;;;;12.18;8.48;;;14.90;99.90;;;14.77;95.89;101934.66;3935564;30;20493;-68
2021/06/08 05:48:58;;;;;;;9.80;8.02;;;15.00;99.90;;;14.84;96.17;101935.72;3935648;30;20032;-68
2021/06/08 05:51:01;;;;;;;8.05;6.65;;;15.00;99.90;;;14.87;96.48;101936.22;3919863;30;20040;-68
2021/06/08 05:53:04;;;;;;;10.18;7.22;;;15.10;99.90;;;14.94;95.30;101936.44;3935674;30;20093;-68
2021/06/08 05:55:06;;;;;;;9.52;7.40;;;15.20;99.90;;;14.96;95.41;101943.28;3935647;30;20056;-68
2021/06/08 05:57:10;;;;;;;9.25;6.88;;;15.30;99.90;;;14.92;96.36;101938.44;3935416;30;20123;-68
2021/06/08 05:59:14;;;;;;;;;;;15.30;99.90;;;14.94;96.35;101931.13;3920246;30;20036;-67
2021/06/08 06:01:16;;;;;;;9.45;7.47;;;15.30;99.90;;;14.88;96.90;101926.44;3935735;30;19918;-68
2021/06/08 06:03:18;;;;;;;9.40;6.93;;;15.40;99.90;;;15.12;96.02;101942.56;3919785;30;20040;-68
2021/06/08 06:05:19;;;;;;;8.70;6.07;;;15.40;99.90;;;15.13;96.67;101946.06;3934436;30;20561;-68
2021/06/08 06:07:20;;;;;;;7.95;6.95;;;15.40;99.90;;;15.24;95.99;101946.63;3931354;30;20032;-68
2021/06/08 06:09:23;;;;;;;9.15;6.93;;;15.50;99.90;;;15.28;96.31;101945.31;3925929;30;20025;-68
2021/06/08 06:11:26;;;;;;;9.60;6.20;;;15.50;99.90;;;15.37;95.25;101949.69;3933419;30;20064;-68
2021/06/08 06:13:33;;;;;;;9.95;7.13;;;15.60;99.90;;;15.36;95.41;101944.53;3919520;30;20064;-68
2021/06/08 06:15:35;;;;;;;9.52;7.43;;;15.60;99.90;;;15.47;95.59;101945.13;3922612;30;20095;-68
2021/06/08 06:17:40;;;;;;;12.80;7.85;;;15.70;99.90;;;15.48;95.88;101956.59;3911142;30;20032;-68
2021/06/08 06:19:43;;;;;;;8.10;6.38;;;15.80;99.90;;;15.50;96.55;101955.44;3935675;30;20114;-68
2021/06/08 06:21:45;;;;;;;11.25;8.13;;;15.80;99.90;;;15.61;95.57;101956.16;3934000;30;20090;-68
2021/06/08 06:23:47;;;;;;;7.88;6.50;;;15.90;99.90;;;15.70;95.32;101955.22;3935260;30;20040;-68
2021/06/08 06:25:51;;;;;;;7.60;6.63;;;16.00;99.90;;;15.70;96.01;101953.38;3919703;30;20056;-68
2021/06/08 06:27:52;;;;;;;;;;;16.00;99.90;;;15.69;95.45;101942.91;3935676;30;20416;-68
2021/06/08 06:29:54;;;;;;;9.32;7.15;;;16.10;99.90;;;15.85;95.05;101967.75;3935491;30;19918;-68
2021/06/08 06:31:56;;;;;;;9.30;7.18;;;16.20;99.90;;;15.87;95.28;101951.63;3934288;30;20067;-68
2021/06/08 06:33:58;;;;;;;10.80;6.63;;;16.20;99.90;;;15.94;95.40;101952.66;3935328;30;20127;-68
2021/06/08 06:35:59;;;;;;;8.88;7.47;;;16.30;99.90;;;16.00;95.79;101954.66;3935222;30;20084;-68
2021/06/08 06:38:03;;;;;;;11.40;8.50;;;16.30;99.90;;;16.07;95.46;101957.50;3919751;30;20413;-68
2021/06/08 06:40:12;;;;;;;7.85;6.20;;;16.40;99.90;;;16.04;96.16;101962.16;3935335;30;20397;-68
2021/06/08 06:42:15;;;;;;;22.13;8.50;;;16.40;99.90;;;16.07;95.29;101958.31;3933768;30;20086;-68
2021/06/08 06:44:23;;;;;;;17.08;7.75;;;16.50;99.90;;;16.21;95.34;101964.88;3935472;30;20423;-68
2021/06/08 06:46:24;;;;;;;21.17;8.90;;;16.60;99.90;;;16.10;95.88;101955.34;3936406;30;20028;-68
2021/06/08 06:48:25;;;;;;;14.68;8.27;;;16.60;99.90;;;16.25;95.68;101961.69;3935629;30;20165;-68
2021/06/08 06:50:26;;;;;;;11.95;7.10;;;16.60;99.90;;;16.31;95.70;101966.38;3927690;30;20025;-68
2021/06/08 06:52:27;;;;;;;12.77;6.78;;;16.70;99.90;;;16.39;95.48;101968.25;3919334;30;20104;-68
2021/06/08 06:54:30;;;;;;;9.90;7.45;;;16.80;99.90;;;16.50;94.97;101966.09;3921723;30;20025;-68
2021/06/08 06:56:31;;;;;;;8.93;7.10;;;16.90;99.90;;;16.51;95.59;101967.75;3936771;30;20456;-68
2021/06/08 06:58:33;;;;;;;10.23;6.43;;;16.90;99.90;;;16.50;95.73;101966.09;3936359;30;20028;-68
2021/06/08 07:00:34;;;;;;;8.23;5.22;;;17.00;99.90;;;16.57;95.71;101967.13;3937663;30;20489;-68
2021/06/08 07:02:35;;;;;;;5.82;4.80;;;17.00;99.90;;;16.61;96.17;101966.81;3936879;30;20028;-68
2021/06/08 07:04:37;;;;;;;6.05;4.90;;;17.00;99.90;;;16.67;96.21;101971.44;3934465;30;20047;-67
2021/06/08 07:06:41;;;;;;;11.02;6.68;;;17.10;99.90;;;16.81;95.33;101962.81;3936414;30;20029;-67
2021/06/08 07:08:42;;;;;;;7.13;5.28;;;17.20;99.90;;;16.82;95.55;101967.13;3936018;30;20117;-68
2021/06/08 07:10:45;;;;;;;8.25;6.20;;;17.20;99.90;;;16.83;95.82;101960.78;3921646;30;20036;-68
2021/06/08 07:12:47;;;;;;;12.27;6.50;;;17.30;99.90;;;16.88;95.54;101953.13;3936338;30;20042;-68
2021/06/08 07:14:50;;;;;;;7.97;6.32;;;17.40;99.90;;;17.09;93.85;101958.78;3936229;30;20032;-68
2021/06/08 07:16:53;;;;;;;7.25;6.30;;;17.50;99.90;;;17.06;93.80;101964.44;3937248;30;20068;-68
2021/06/08 07:18:54;;;;;;;9.55;6.60;;;17.60;99.90;;;17.04;94.18;101953.97;3936350;30;20530;-68
2021/06/08 07:20:55;;;;;;;8.23;6.25;;;17.60;99.90;;;17.26;93.44;101957.75;3921691;30;20086;-68
2021/06/08 07:22:58;;;;;;;7.00;5.30;;;17.70;99.90;;;17.33;93.30;101958.72;3921577;30;20040;-68
2021/06/08 07:25:02;;;;;;;5.55;4.60;;;17.80;99.90;;;17.31;94.00;101957.25;3921195;30;20540;-68
2021/06/08 07:27:04;;;;;;;10.95;6.75;;;17.80;99.90;;;17.35;93.54;101959.38;3921646;30;20037;-68
2021/06/08 07:29:11;;;;;;;6.93;5.28;;;17.90;99.90;;;17.40;93.77;101954.38;3937422;30;20160;-68
2021/06/08 07:31:43;;;;;;;6.95;4.63;;;17.90;99.90;;;17.47;94.17;101957.22;3937308;30;20035;-68
2021/06/08 07:33:58;;;;;;;6.72;6.05;;;18.00;99.90;;;17.62;93.16;101961.66;3935988;30;20032;-68
2021/06/08 07:36:26;;;;;;;8.13;4.97;;;18.10;99.90;;;17.73;92.52;101962.31;3935958;30;20063;-68
2021/06/08 07:38:49;;;;;;;5.40;4.53;;;18.20;99.90;;;17.88;92.15;101958.75;3918059;30;20983;-68
2021/06/08 07:41:03;;;;;;;6.22;5.63;;;18.30;99.90;;;17.92;91.91;101954.69;3926924;30;20103;-68
2021/06/08 07:43:06;;;;;;;8.40;5.68;;;18.50;99.90;;;18.07;92.39;101963.63;3920682;30;20124;-68
2021/06/08 07:45:30;;;;;;;9.00;5.13;;;18.50;99.90;;;18.17;91.41;101961.59;3936307;30;20040;-68
2021/06/08 07:47:32;;;;;;;11.80;5.82;;;18.60;99.90;;;18.32;90.79;101964.34;3936828;30;20060;-68
2021/06/08 07:49:35;;;;;;;10.90;6.80;;;18.80;99.90;;;18.28;90.72;101955.00;3937062;30;20032;-68
2021/06/08 07:51:42;;;;;;;8.38;6.40;;;18.90;99.90;;;18.52;89.90;101964.72;3935837;30;20036;-68
2021/06/08 07:53:43;;;;;;;8.55;5.20;;;19.00;99.90;;;18.62;88.95;101958.16;3921229;30;20082;-69
2021/06/08 07:55:47;;;;;;;5.60;4.45;;;19.20;99.90;;;18.72;89.35;101956.06;3935981;30;20040;-68
2021/06/08 07:57:49;;;;;;;;;;;19.20;99.90;;;18.81;89.42;101959.50;3937071;30;20548;-68
2021/06/08 07:59:51;;;;;;;5.82;4.35;;;19.40;99.90;;;18.98;89.00;101960.19;3936881;30;20362;-68
2021/06/08 08:01:52;;;;;;;4.35;3.38;;;19.50;99.90;;;19.11;89.03;101958.56;3936849;30;20040;-69
2021/06/08 08:03:53;;;;;;;7.75;5.40;;;19.60;99.90;;;19.30;86.83;101951.81;3936660;30;20024;-68
2021/06/08 08:06:04;;;;;;;6.25;4.60;;;19.70;99.90;;;19.36;85.41;101956.44;3921260;30;20032;-68
2021/06/08 08:08:08;;;;;;;8.48;5.47;;;19.90;99.90;;;19.49;84.95;101956.69;3936825;30;20420;-68
2021/06/08 08:10:10;;;;;;;8.75;5.60;;;20.10;99.90;;;19.65;83.95;101955.66;3936655;30;20054;-68
2021/06/08 08:12:12;;;;;;;9.82;5.80;;;20.20;99.90;;;19.66;84.33;101952.78;3920741;30;20040;-68
2021/06/08 08:14:15;;;;;;;6.80;5.18;;;20.30;99.90;;;19.70;85.31;101954.09;3920749;30;20058;-68
2021/06/08 08:16:18;;;;;;;6.38;4.20;;;20.40;99.90;;;19.89;84.63;101956.16;3936721;30;20064;-70
2021/06/08 08:18:21;;;;;;;6.45;4.50;;;20.50;99.90;;;20.09;82.59;101958.25;3921043;30;20107;-68
2021/06/08 08:20:41;;;;;;;7.75;4.90;;;20.60;99.90;;;20.16;82.42;101956.50;3920999;30;20428;-68
2021/06/08 08:22:42;;;;;;;7.65;4.68;;;20.70;99.90;;;20.25;80.10;101945.47;3921021;30;20048;-68
2021/06/08 08:24:44;;;;;;;7.60;4.68;;;20.90;99.90;;;20.45;78.92;101953.75;3936185;30;20032;-68
2021/06/08 08:26:45;;;;;;;11.20;4.18;;;21.00;99.90;;;20.55;79.13;101940.03;3936130;30;20028;-68
2021/06/08 08:28:48;;;;;;;7.75;3.83;;;21.20;99.90;;;20.70;78.84;101941.59;3936539;30;20024;-68
2021/06/08 08:30:49;;;;;;;5.93;3.53;;;21.30;99.90;;;20.82;78.53;101934.69;3936479;30;20113;-68
2021/06/08 08:32:50;;;;;;;6.60;3.90;;;21.40;99.90;;;20.82;77.88;101940.03;3936452;30;20037;-68
2021/06/08 08:34:51;;;;;;;4.60;3.80;;;21.50;99.90;;;20.89;76.01;101927.53;3936030;30;20043;-68
2021/06/08 08:36:52;;;;;;;4.95;3.30;;;21.60;99.90;;;21.11;76.22;101938.22;3936445;30;20060;-68